Itamonte, Brazil
Current Conditions -  °F | °C
As of 10:00 AM on Monday 22 Dec 2014 (Local Time) from SBGW Reporting Station
Scattered Clouds Scattered Clouds  
Wind Chill: 79°   Ceiling: Unl
Heat Index: 81°   Visibility: 6mi
Dew Point: 70°   Wind: 2mph
Humidity: 74%   Direction: 210°SSW
Pressure: 29.94"   Gusts: NA
Location:  22.28°S, 44.87°W
Report Text: SBGW 221200Z 21002KT 9999 SCT015 SCT100 26/21 Q1014
Loading
Personal Weather Stations






























Interactive Weather Map New forecast layout! Learn more

10-Day Weather Forecast

Advertisements
Track Severe Weather on mobile